Have a Safe July 4th! 

Flight Track Log - Related Links

Times and Time Zones

All times are in EDT time to prevent confusion due to time zone crossing. See the UAL143 flight status page for this flight to view local times or setup timezone preferences in your user account.

Time Position Orientation Groundspeed Altitude Reporting Facility
EDT Latitude Longitude Course Direction KTS MPH feet Rate Location/Type
Fri 05:47:00 PM 6.6819 2.9536 286° West  Level FlightAware Approximate
Fri 05:48:00 PM 6.7167 2.8311 286° West  Level FlightAware Approximate
Fri 05:49:00 PM 6.7515 2.7085 286° West  Level FlightAware Approximate
Fri 05:50:00 PM 6.7862 2.5859 286° West  Level FlightAware Approximate
Fri 05:51:00 PM 6.8209 2.4633 286° West  Level FlightAware Approximate
Fri 05:52:00 PM 6.8556 2.3407 286° West  Level FlightAware Approximate
Fri 05:53:00 PM 6.8902 2.2180 286° West  Level FlightAware Approximate
Fri 05:54:00 PM 6.9248 2.0954 286° West  Level FlightAware Approximate
Fri 05:55:00 PM 6.9594 1.9727 286° West  Level FlightAware Approximate
Fri 05:56:00 PM 6.9939 1.8500 286° West  Level FlightAware Approximate
Fri 05:57:00 PM 7.0285 1.7273 286° West  Level FlightAware Approximate
Fri 05:58:00 PM 7.0629 1.6046 286° West  Level FlightAware Approximate
Fri 05:59:00 PM 7.0974 1.4818 286° West  Level FlightAware Approximate
Fri 06:00:00 PM 7.1618 1.3720 300° West  Level Estimated
Fri 06:01:00 PM 7.2160 1.2567 295° West  Level FlightAware Approximate
Fri 06:02:00 PM 7.2702 1.1414 295° West  Level FlightAware Approximate
Fri 06:03:00 PM 7.3244 1.0260 295° West  Level FlightAware Approximate
Fri 06:04:00 PM 7.3785 0.9107 295° West  Level FlightAware Approximate
Fri 06:05:00 PM 7.4326 0.7953 295° West  Level FlightAware Approximate
Fri 06:06:00 PM 7.4867 0.6798 295° West  Level FlightAware Approximate
Fri 06:07:00 PM 7.5407 0.5644 295° West  Level FlightAware Approximate
Fri 06:08:00 PM 7.5947 0.4489 295° West  Level FlightAware Approximate
Fri 06:09:00 PM 7.6487 0.3334 295° West  Level FlightAware Approximate
Fri 06:10:00 PM 7.7027 0.2178 295° West  Level FlightAware Approximate
Fri 06:11:00 PM 7.7566 0.1022 295° West  Level FlightAware Approximate
Fri 06:12:00 PM 7.8105 -0.0134 295° West  Level FlightAware Approximate
Fri 06:13:00 PM 7.8643 -0.1290 295° West  Level FlightAware Approximate
Fri 06:14:00 PM 7.9182 -0.2447 295° West  Level FlightAware Approximate
Fri 06:15:00 PM 7.9720 -0.3604 295° West  Level FlightAware Approximate
Fri 06:16:00 PM 8.0257 -0.4761 295° West  Level FlightAware Approximate
Fri 06:17:00 PM 8.0802 -0.5935 295° West  Level FlightAware Approximate
Fri 06:18:00 PM 8.1346 -0.7109 295° West  Level FlightAware Approximate
Fri 06:19:00 PM 8.1890 -0.8283 295° West  Level FlightAware Approximate
Fri 06:20:00 PM 8.2434 -0.9458 295° West  Level FlightAware Approximate
Fri 06:21:00 PM 8.2978 -1.0632 295° West  Level FlightAware Approximate
Fri 06:22:00 PM 8.3521 -1.1808 295° West  Level FlightAware Approximate
Fri 06:23:00 PM 8.4063 -1.2983 295° West  Level FlightAware Approximate
Fri 06:24:00 PM 8.4606 -1.4159 295° West  Level FlightAware Approximate
Fri 06:25:00 PM 8.5148 -1.5335 295° West  Level FlightAware Approximate
Fri 06:26:00 PM 8.5689 -1.6512 295° West  Level FlightAware Approximate
Fri 06:27:00 PM 8.6231 -1.7689 295° West  Level FlightAware Approximate
Fri 06:28:00 PM 8.6772 -1.8866 295° West  Level FlightAware Approximate
Fri 06:29:00 PM 8.7312 -2.0044 295° West  Level FlightAware Approximate
Fri 06:30:00 PM 8.7956 -2.1167 300° West  Level Estimated
Fri 06:31:00 PM 8.8527 -2.2330 296° West  Level FlightAware Approximate
Fri 06:32:00 PM 8.9099 -2.3493 296° West  Level FlightAware Approximate
Fri 06:33:00 PM 8.9669 -2.4657 296° West  Level FlightAware Approximate
Fri 06:34:00 PM 9.0240 -2.5821 296° West  Level FlightAware Approximate
Fri 06:35:00 PM 9.0810 -2.6985 296° West  Level FlightAware Approximate
Fri 06:36:00 PM 9.1379 -2.8150 296° West  Level FlightAware Approximate
Fri 06:37:00 PM 9.1949 -2.9315 296° West  Level FlightAware Approximate
Fri 06:38:00 PM 9.2590 -3.0441 300° West  Level Estimated
Fri 06:39:00 PM 9.3226 -3.1571 300° West  Level FlightAware Approximate
Fri 06:40:00 PM 9.3861 -3.2701 300° West  Level FlightAware Approximate
Fri 06:41:00 PM 9.4496 -3.3831 300° West  Level FlightAware Approximate
Fri 06:42:00 PM 9.5131 -3.4962 300° West  Level FlightAware Approximate
Fri 06:43:00 PM 9.5766 -3.6093 300° West  Level FlightAware Approximate
Fri 06:44:00 PM 9.6400 -3.7225 300° West  Level FlightAware Approximate
Fri 06:45:00 PM 9.7033 -3.8357 300° West  Level FlightAware Approximate
Fri 06:46:00 PM 9.7667 -3.9490 300° West  Level FlightAware Approximate
Fri 06:47:00 PM 9.8300 -4.0623 300° West  Level FlightAware Approximate
Fri 06:48:00 PM 9.8932 -4.1756 300° West  Level FlightAware Approximate
Fri 06:49:00 PM 9.9565 -4.2890 300° West  Level FlightAware Approximate
Fri 06:50:00 PM 10.0196 -4.4024 300° West  Level FlightAware Approximate
Fri 06:51:00 PM 10.0828 -4.5159 299° West  Level FlightAware Approximate
Fri 06:52:00 PM 10.1459 -4.6294 299° West  Level FlightAware Approximate
Fri 06:53:00 PM 10.2090 -4.7430 299° West  Level FlightAware Approximate
Fri 06:54:00 PM 10.2720 -4.8566 299° West  Level FlightAware Approximate
Fri 06:55:00 PM 10.3350 -4.9702 299° West  Level FlightAware Approximate
Fri 06:56:00 PM 10.3979 -5.0839 299° West  Level FlightAware Approximate
Fri 06:57:00 PM 10.4608 -5.1977 299° West  Level FlightAware Approximate
Fri 06:58:00 PM 10.5237 -5.3115 299° West  Level FlightAware Approximate
Fri 06:59:00 PM 10.5865 -5.4253 299° West  Level FlightAware Approximate
Fri 07:00:00 PM 10.6493 -5.5392 299° West  Level FlightAware Approximate
Fri 07:01:00 PM 10.7121 -5.6531 299° West  Level FlightAware Approximate
Fri 07:02:00 PM 10.7748 -5.7671 299° West  Level FlightAware Approximate
Fri 07:03:00 PM 10.8375 -5.8811 299° West  Level FlightAware Approximate
Fri 07:04:00 PM 10.9001 -5.9952 299° West  Level FlightAware Approximate
Fri 07:05:00 PM 10.9627 -6.1093 299° West  Level FlightAware Approximate
Fri 07:06:00 PM 11.0252 -6.2235 299° West  Level FlightAware Approximate
Fri 07:07:00 PM 11.0877 -6.3377 299° West  Level FlightAware Approximate
Fri 07:08:00 PM 11.1501 -6.4520 299° West  Level FlightAware Approximate
Fri 07:09:00 PM 11.2125 -6.5663 299° West  Level FlightAware Approximate
Fri 07:10:00 PM 11.2749 -6.6806 299° West  Level FlightAware Approximate
Fri 07:11:00 PM 11.3372 -6.7950 299° West  Level FlightAware Approximate
Fri 07:12:00 PM 11.3995 -6.9095 299° West  Level FlightAware Approximate
Fri 07:13:00 PM 11.4617 -7.0240 299° West  Level FlightAware Approximate
Fri 07:14:00 PM 11.5239 -7.1386 299° West  Level FlightAware Approximate
Fri 07:15:00 PM 11.5861 -7.2532 299° West  Level FlightAware Approximate
Fri 07:16:00 PM 11.6482 -7.3678 299° West  Level FlightAware Approximate
Fri 07:17:00 PM 11.7102 -7.4826 299° West  Level FlightAware Approximate
Fri 07:18:00 PM 11.7722 -7.5973 299° West  Level FlightAware Approximate
Fri 07:19:00 PM 11.8342 -7.7122 299° West  Level FlightAware Approximate
Fri 07:20:00 PM 11.8961 -7.8270 299° West  Level FlightAware Approximate
Fri 07:21:00 PM 11.9580 -7.9419 299° West  Level FlightAware Approximate
Fri 07:22:00 PM 12.0198 -8.0569 299° West  Level FlightAware Approximate
Fri 07:23:00 PM 12.0815 -8.1720 299° West  Level FlightAware Approximate
Fri 07:24:00 PM 12.1433 -8.2870 299° West  Level FlightAware Approximate
Fri 07:25:00 PM 12.2050 -8.4022 299° West  Level FlightAware Approximate
Fri 07:26:00 PM 12.2666 -8.5174 299° West  Level FlightAware Approximate
Fri 07:27:00 PM 12.3282 -8.6326 299° West  Level FlightAware Approximate
Fri 07:28:00 PM 12.3897 -8.7479 299° West  Level FlightAware Approximate
Fri 07:29:00 PM 12.4512 -8.8632 299° West  Level FlightAware Approximate
Fri 07:30:00 PM 12.5126 -8.9787 299° West  Level FlightAware Approximate
Fri 07:31:00 PM 12.5740 -9.0941 299° West  Level FlightAware Approximate
Fri 07:32:00 PM 12.6354 -9.2096 299° West  Level FlightAware Approximate
Fri 07:33:00 PM 12.6966 -9.3252 299° West  Level FlightAware Approximate
Fri 07:34:00 PM 12.7579 -9.4408 299° West  Level FlightAware Approximate
Fri 07:35:00 PM 12.8191 -9.5565 298° West  Level FlightAware Approximate
Fri 07:36:00 PM 12.8802 -9.6723 298° West  Level FlightAware Approximate
Fri 07:37:00 PM 12.9413 -9.7881 298° West  Level FlightAware Approximate
Fri 07:38:00 PM 13.0023 -9.9039 298° West  Level FlightAware Approximate
Fri 07:39:00 PM 13.0633 -10.0198 298° West  Level FlightAware Approximate
Fri 07:40:00 PM 13.1243 -10.1358 298° West  Level FlightAware Approximate
Fri 07:41:00 PM 13.1851 -10.2518 298° West  Level FlightAware Approximate
Fri 07:42:00 PM 13.2460 -10.3679 298° West  Level FlightAware Approximate
Fri 07:43:00 PM 13.3068 -10.4840 298° West  Level FlightAware Approximate
Fri 07:44:00 PM 13.3675 -10.6002 298° West  Level FlightAware Approximate
Fri 07:45:00 PM 13.4281 -10.7165 298° West  Level FlightAware Approximate
Fri 07:46:00 PM 13.4877 -10.8308 298° West  Level FlightAware Approximate
Fri 07:47:00 PM 13.5472 -10.9451 298° West  Level FlightAware Approximate
Fri 07:48:00 PM 13.6066 -11.0595 298° West  Level FlightAware Approximate
Fri 07:49:00 PM 13.6660 -11.1739 298° West  Level FlightAware Approximate
Fri 07:50:00 PM 13.7254 -11.2884 298° West  Level FlightAware Approximate
Fri 07:51:00 PM 13.7846 -11.4029 298° West  Level FlightAware Approximate
Fri 07:52:00 PM 13.8439 -11.5175 298° West  Level FlightAware Approximate
Fri 07:53:00 PM 13.9031 -11.6322 298° West  Level FlightAware Approximate
Fri 07:54:00 PM 13.9622 -11.7469 298° West  Level FlightAware Approximate
Fri 07:55:00 PM 14.0213 -11.8617 298° West  Level FlightAware Approximate
Fri 07:56:00 PM 14.0803 -11.9765 298° West  Level FlightAware Approximate
Fri 07:57:00 PM 14.1392 -12.0914 298° West  Level FlightAware Approximate
Fri 07:58:00 PM 14.1981 -12.2064 298° West  Level FlightAware Approximate
Fri 07:59:00 PM 14.2570 -12.3214 298° West  Level FlightAware Approximate
Fri 08:00:00 PM 14.3158 -12.4365 298° West  Level FlightAware Approximate
Fri 08:01:00 PM 14.3745 -12.5516 298° West  Level FlightAware Approximate
Fri 08:02:00 PM 14.4332 -12.6668 298° West  Level FlightAware Approximate
Fri 08:03:00 PM 14.4919 -12.7821 298° West  Level FlightAware Approximate
Fri 08:04:00 PM 14.5504 -12.8974 298° West  Level FlightAware Approximate
Fri 08:05:00 PM 14.6090 -13.0128 298° West  Level FlightAware Approximate
Fri 08:06:00 PM 14.6674 -13.1282 298° West  Level FlightAware Approximate
Fri 08:07:00 PM 14.7258 -13.2437 298° West  Level FlightAware Approximate
Fri 08:08:00 PM 14.7842 -13.3593 298° West  Level FlightAware Approximate
Fri 08:09:00 PM 14.8425 -13.4749 298° West  Level FlightAware Approximate
Fri 08:10:00 PM 14.9007 -13.5906 298° West  Level FlightAware Approximate
Fri 08:11:00 PM 14.9589 -13.7064 297° West  Level FlightAware Approximate
Fri 08:12:00 PM 15.0170 -13.8222 297° West  Level FlightAware Approximate
Fri 08:13:00 PM 15.0751 -13.9381 297° West  Level FlightAware Approximate
Fri 08:14:00 PM 15.1331 -14.0540 297° West  Level FlightAware Approximate
Fri 08:15:00 PM 15.1910 -14.1700 297° West  Level FlightAware Approximate
Fri 08:16:00 PM 15.2489 -14.2861 297° West  Level FlightAware Approximate
Fri 08:17:00 PM 15.3067 -14.4023 297° West  Level FlightAware Approximate
Fri 08:18:00 PM 15.3645 -14.5185 297° West  Level FlightAware Approximate
Fri 08:19:00 PM 15.4222 -14.6347 297° West  Level FlightAware Approximate
Fri 08:20:00 PM 15.4798 -14.7510 297° West  Level FlightAware Approximate
Fri 08:21:00 PM 15.5374 -14.8674 297° West  Level FlightAware Approximate
Fri 08:22:00 PM 15.5949 -14.9839 297° West  Level FlightAware Approximate
Fri 08:23:00 PM 15.6524 -15.1004 297° West  Level FlightAware Approximate
Fri 08:24:00 PM 15.7098 -15.2170 297° West  Level FlightAware Approximate
Fri 08:25:00 PM 15.7671 -15.3337 297° West  Level FlightAware Approximate
Fri 08:26:00 PM 15.8244 -15.4504 297° West  Level FlightAware Approximate
Fri 08:27:00 PM 15.8816 -15.5672 297° West  Level FlightAware Approximate
Fri 08:28:00 PM 15.9387 -15.6840 297° West  Level FlightAware Approximate
Fri 08:29:00 PM 15.9958 -15.8010 297° West  Level FlightAware Approximate
Fri 08:30:00 PM 16.0528 -15.9179 297° West  Level FlightAware Approximate
Fri 08:31:00 PM 16.1098 -16.0350 297° West  Level FlightAware Approximate
Fri 08:32:00 PM 16.1667 -16.1521 297° West  Level FlightAware Approximate
Fri 08:33:00 PM 16.2235 -16.2693 297° West  Level FlightAware Approximate
Fri 08:34:00 PM 16.2803 -16.3866 297° West  Level FlightAware Approximate
Fri 08:35:00 PM 16.3370 -16.5039 297° West  Level FlightAware Approximate
Fri 08:36:00 PM 16.3936 -16.6213 297° West  Level FlightAware Approximate
Fri 08:37:00 PM 16.4501 -16.7387 297° West  Level FlightAware Approximate
Fri 08:38:00 PM 16.5067 -16.8563 297° West  Level FlightAware Approximate
Fri 08:39:00 PM 16.5636 -16.9736 297° West  Level Estimated
Fri 08:40:00 PM 16.6203 -17.0911 297° West  Level FlightAware Approximate
Fri 08:41:00 PM 16.6769 -17.2087 297° West  Level FlightAware Approximate
Fri 08:42:00 PM 16.7334 -17.3263 297° West  Level FlightAware Approximate
Fri 08:43:00 PM 16.7899 -17.4440 297° West  Level FlightAware Approximate
Fri 08:44:00 PM 16.8463 -17.5618 297° West  Level FlightAware Approximate
Fri 08:45:00 PM 16.9026 -17.6797 297° West  Level FlightAware Approximate
Fri 08:46:00 PM 16.9589 -17.7976 297° West  Level FlightAware Approximate
Fri 08:47:00 PM 17.0153 -17.9155 296° West  Level Estimated
Fri 08:48:00 PM 17.0720 -18.0333 297° West  Level FlightAware Approximate
Fri 08:49:00 PM 17.1285 -18.1512 297° West  Level FlightAware Approximate
Fri 08:50:00 PM 17.1850 -18.2692 297° West  Level FlightAware Approximate
Fri 08:51:00 PM 17.2414 -18.3872 297° West  Level FlightAware Approximate
Fri 08:52:00 PM 17.2978 -18.5053 297° West  Level FlightAware Approximate
Fri 08:53:00 PM 17.3541 -18.6235 297° West  Level FlightAware Approximate
Fri 08:54:00 PM 17.4103 -18.7417 296° West  Level FlightAware Approximate
Fri 08:55:00 PM 17.4664 -18.8600 296° West  Level FlightAware Approximate
Fri 08:56:00 PM 17.5225 -18.9784 296° West  Level FlightAware Approximate
Fri 08:57:00 PM 17.5785 -19.0969 296° West  Level FlightAware Approximate
Fri 08:58:00 PM 17.6345 -19.2154 296° West  Level FlightAware Approximate
Fri 08:59:00 PM 17.6903 -19.3340 296° West  Level FlightAware Approximate
Fri 09:00:00 PM 17.7461 -19.4527 296° West  Level FlightAware Approximate
Fri 09:01:00 PM 17.8019 -19.5715 296° West  Level FlightAware Approximate
Fri 09:02:00 PM 17.8575 -19.6903 296° West  Level FlightAware Approximate
Fri 09:03:00 PM 17.9131 -19.8092 296° West  Level FlightAware Approximate
Fri 09:04:00 PM 17.9686 -19.9282 296° West  Level FlightAware Approximate
Fri 09:05:00 PM 18.0240 -20.0473 296° West  Level FlightAware Approximate
Fri 09:06:00 PM 18.0794 -20.1664 296° West  Level FlightAware Approximate
Fri 09:07:00 PM 18.1347 -20.2856 296° West  Level FlightAware Approximate
Fri 09:08:00 PM 18.1899 -20.4049 296° West  Level FlightAware Approximate
Fri 09:09:00 PM 18.2450 -20.5242 296° West  Level FlightAware Approximate
Fri 09:10:00 PM 18.3001 -20.6437 296° West  Level FlightAware Approximate
Fri 09:11:00 PM 18.3551 -20.7632 296° West  Level FlightAware Approximate
Fri 09:12:00 PM 18.4100 -20.8827 296° West  Level FlightAware Approximate
Fri 09:13:00 PM 18.4649 -21.0024 296° West  Level FlightAware Approximate
Fri 09:14:00 PM 18.5196 -21.1222 296° West  Level FlightAware Approximate
Fri 09:15:00 PM 18.5743 -21.2420 296° West  Level FlightAware Approximate
Fri 09:16:00 PM 18.6289 -21.3619 296° West  Level FlightAware Approximate
Fri 09:17:00 PM 18.6835 -21.4818 296° West  Level FlightAware Approximate
Fri 09:18:00 PM 18.7379 -21.6019 296° West  Level FlightAware Approximate
Fri 09:19:00 PM 18.7923 -21.7220 296° West  Level FlightAware Approximate
Fri 09:20:00 PM 18.8466 -21.8422 296° West  Level FlightAware Approximate
Fri 09:21:00 PM 18.9009 -21.9625 295° West  Level FlightAware Approximate
Fri 09:22:00 PM 18.9550 -22.0828 295° West  Level FlightAware Approximate
Fri 09:23:00 PM 19.0091 -22.2033 295° West  Level FlightAware Approximate
Fri 09:24:00 PM 19.0631 -22.3238 295° West  Level FlightAware Approximate
Fri 09:25:00 PM 19.1171 -22.4443 295° West  Level FlightAware Approximate
Fri 09:26:00 PM 19.1709 -22.5650 295° West  Level FlightAware Approximate
Fri 09:27:00 PM 19.2247 -22.6858 295° West  Level FlightAware Approximate
Fri 09:28:00 PM 19.2784 -22.8066 295° West  Level FlightAware Approximate
Fri 09:29:00 PM 19.3320 -22.9275 295° West  Level FlightAware Approximate
Fri 09:30:00 PM 19.3855 -23.0485 295° West  Level FlightAware Approximate
Fri 09:31:00 PM 19.4389 -23.1696 295° West  Level FlightAware Approximate
Fri 09:32:00 PM 19.4923 -23.2907 295° West  Level FlightAware Approximate
Fri 09:33:00 PM 19.5456 -23.4119 295° West  Level FlightAware Approximate
Fri 09:34:00 PM 19.5988 -23.5332 295° West  Level FlightAware Approximate
Fri 09:35:00 PM 19.6519 -23.6546 295° West  Level FlightAware Approximate
Fri 09:36:00 PM 19.7050 -23.7761 295° West  Level FlightAware Approximate
Fri 09:37:00 PM 19.7579 -23.8976 295° West  Level FlightAware Approximate
Fri 09:38:00 PM 19.8108 -24.0193 295° West  Level FlightAware Approximate
Fri 09:39:00 PM 19.8636 -24.1410 295° West  Level FlightAware Approximate
Fri 09:40:00 PM 19.9163 -24.2628 295° West  Level FlightAware Approximate
Fri 09:41:00 PM 19.9687 -24.3848 294° West  Level Estimated
Fri 09:42:00 PM 20.0212 -24.5067 295° West  Level FlightAware Approximate
Fri 09:43:00 PM 20.0737 -24.6287 295° West  Level FlightAware Approximate
Fri 09:44:00 PM 20.1262 -24.7508 295° West  Level FlightAware Approximate
Fri 09:45:00 PM 20.1785 -24.8730 295° West  Level FlightAware Approximate
Fri 09:46:00 PM 20.2307 -24.9953 295° West  Level FlightAware Approximate
Fri 09:47:00 PM 20.2829 -25.1176 294° West  Level FlightAware Approximate
Fri 09:48:00 PM 20.3349 -25.2400 294° West  Level FlightAware Approximate
Fri 09:49:00 PM 20.3869 -25.3625 294° West  Level FlightAware Approximate
Fri 09:50:00 PM 20.4388 -25.4851 294° West  Level FlightAware Approximate
Fri 09:51:00 PM 20.4907 -25.6078 294° West  Level FlightAware Approximate
Fri 09:52:00 PM 20.5424 -25.7306 294° West  Level FlightAware Approximate
Fri 09:53:00 PM 20.5940 -25.8534 294° West  Level FlightAware Approximate
Fri 09:54:00 PM 20.6456 -25.9763 294° West  Level FlightAware Approximate
Fri 09:55:00 PM 20.6971 -26.0993 294° West  Level FlightAware Approximate
Fri 09:56:00 PM 20.7484 -26.2224 294° West  Level FlightAware Approximate
Fri 09:57:00 PM 20.7997 -26.3456 294° West  Level FlightAware Approximate
Fri 09:58:00 PM 20.8510 -26.4688 294° West  Level FlightAware Approximate
Fri 09:59:00 PM 20.9021 -26.5922 294° West  Level FlightAware Approximate
Fri 10:00:00 PM 20.9531 -26.7156 294° West  Level FlightAware Approximate
Fri 10:01:00 PM 21.0040 -26.8391 294° West  Level FlightAware Approximate
Fri 10:02:00 PM 21.0549 -26.9627 294° West  Level FlightAware Approximate
Fri 10:03:00 PM 21.1056 -27.0864 294° West  Level FlightAware Approximate
Fri 10:04:00 PM 21.1563 -27.2101 294° West  Level FlightAware Approximate
Fri 10:05:00 PM 21.2069 -27.3340 294° West  Level FlightAware Approximate
Fri 10:06:00 PM 21.2574 -27.4579 294° West  Level FlightAware Approximate
Fri 10:07:00 PM 21.3078 -27.5819 294° West  Level FlightAware Approximate
Fri 10:08:00 PM 21.3581 -27.7060 294° West  Level FlightAware Approximate
Fri 10:09:00 PM 21.4083 -27.8302 293° West  Level FlightAware Approximate
Fri 10:10:00 PM 21.4585 -27.9545 293° West  Level FlightAware Approximate
Fri 10:11:00 PM 21.5085 -28.0789 293° West  Level FlightAware Approximate
Fri 10:12:00 PM 21.5584 -28.2033 293° West  Level FlightAware Approximate
Fri 10:13:00 PM 21.6083 -28.3278 293° West  Level FlightAware Approximate
Fri 10:14:00 PM 21.6581 -28.4524 293° West  Level FlightAware Approximate
Fri 10:15:00 PM 21.7077 -28.5771 293° West  Level FlightAware Approximate
Fri 10:16:00 PM 21.7573 -28.7019 293° West  Level FlightAware Approximate
Fri 10:17:00 PM 21.8068 -28.8268 293° West  Level FlightAware Approximate
Fri 10:18:00 PM 21.8562 -28.9518 293° West  Level FlightAware Approximate
Fri 10:19:00 PM 21.9055 -29.0768 293° West  Level FlightAware Approximate
Fri 10:20:00 PM 21.9547 -29.2019 293° West  Level FlightAware Approximate
Fri 10:21:00 PM 22.0037 -29.3272 293° West  Level FlightAware Approximate
Fri 10:22:00 PM 22.0528 -29.4524 293° West  Level FlightAware Approximate
Fri 10:23:00 PM 22.1017 -29.5778 293° West  Level FlightAware Approximate
Fri 10:24:00 PM 22.1505 -29.7033 293° West  Level FlightAware Approximate
Fri 10:25:00 PM 22.1992 -29.8289 293° West  Level FlightAware Approximate
Fri 10:26:00 PM 22.2478 -29.9545 293° West  Level FlightAware Approximate
Fri 10:27:00 PM 22.2960 -30.0804 291° West  Level Estimated
Fri 10:28:00 PM 22.3441 -30.2064 292° West  Level FlightAware Approximate
Fri 10:29:00 PM 22.3921 -30.3325 292° West  Level FlightAware Approximate
Fri 10:30:00 PM 22.4400 -30.4586 292° West  Level FlightAware Approximate
Fri 10:31:00 PM 22.4879 -30.5848 292° West  Level FlightAware Approximate
Fri 10:32:00 PM 22.5356 -30.7112 292° West  Level FlightAware Approximate
Fri 10:33:00 PM 22.5832 -30.8376 292° West  Level FlightAware Approximate
Fri 10:34:00 PM 22.6307 -30.9641 292° West  Level Estimated
Fri 10:35:00 PM 22.6784 -31.0905 292° West  Level FlightAware Approximate
Fri 10:36:00 PM 22.7261 -31.2171 292° West  Level FlightAware Approximate
Fri 10:37:00 PM 22.7736 -31.3437 292° West  Level FlightAware Approximate
Fri 10:38:00 PM 22.8210 -31.4704 292° West  Level FlightAware Approximate
Fri 10:39:00 PM 22.8684 -31.5972 292° West  Level FlightAware Approximate
Fri 10:40:00 PM 22.9156 -31.7240 292° West  Level FlightAware Approximate
Fri 10:41:00 PM 22.9628 -31.8510 292° West  Level FlightAware Approximate
Fri 10:42:00 PM 23.0098 -31.9781 292° West  Level FlightAware Approximate
Fri 10:43:00 PM 23.0567 -32.1052 292° West  Level FlightAware Approximate
Fri 10:44:00 PM 23.1036 -32.2324 292° West  Level FlightAware Approximate
Fri 10:45:00 PM 23.1503 -32.3597 292° West  Level FlightAware Approximate
Fri 10:46:00 PM 23.1970 -32.4872 292° West  Level FlightAware Approximate
Fri 10:47:00 PM 23.2435 -32.6147 292° West  Level FlightAware Approximate
Fri 10:48:00 PM 23.2899 -32.7422 292° West  Level FlightAware Approximate
Fri 10:49:00 PM 23.3363 -32.8699 292° West  Level FlightAware Approximate
Fri 10:50:00 PM 23.3821 -32.9978 290° West  Level Estimated
Fri 10:51:00 PM 23.4280 -33.1258 291° West  Level FlightAware Approximate
Fri 10:52:00 PM 23.4737 -33.2539 291° West  Level FlightAware Approximate
Fri 10:53:00 PM 23.5194 -33.3820 291° West  Level FlightAware Approximate
Fri 10:54:00 PM 23.5649 -33.5102 291° West  Level FlightAware Approximate
Fri 10:55:00 PM 23.6104 -33.6385 291° West  Level FlightAware Approximate
Fri 10:56:00 PM 23.6557 -33.7670 291° West  Level FlightAware Approximate
Fri 10:57:00 PM 23.7008 -33.8955 290° West  Level Estimated
Fri 10:58:00 PM 23.7461 -34.0240 291° West  Level FlightAware Approximate
Fri 10:59:00 PM 23.7912 -34.1526 291° West  Level FlightAware Approximate
Fri 11:00:00 PM 23.8363 -34.2814 291° West  Level FlightAware Approximate
Fri 11:01:00 PM 23.8812 -34.4102 291° West  Level FlightAware Approximate
Fri 11:02:00 PM 23.9261 -34.5391 291° West  Level FlightAware Approximate
Fri 11:03:00 PM 23.9708 -34.6680 291° West  Level FlightAware Approximate
Fri 11:04:00 PM 24.0154 -34.7971 291° West  Level FlightAware Approximate
Fri 11:05:00 PM 24.0597 -34.9264 290° West  Level Estimated
Fri 11:06:00 PM 24.1043 -35.0555 291° West  Level FlightAware Approximate
Fri 11:07:00 PM 24.1488 -35.1847 291° West  Level FlightAware Approximate
Fri 11:08:00 PM 24.1932 -35.3141 291° West  Level FlightAware Approximate
Fri 11:09:00 PM 24.2375 -35.4435 291° West  Level FlightAware Approximate
Fri 11:10:00 PM 24.2817 -35.5730 291° West  Level FlightAware Approximate
Fri 11:11:00 PM 24.3258 -35.7026 290° West  Level FlightAware Approximate
Fri 11:12:00 PM 24.3697 -35.8323 290° West  Level FlightAware Approximate
Fri 11:13:00 PM 24.4136 -35.9621 290° West  Level FlightAware Approximate
Fri 11:14:00 PM 24.4574 -36.0919 290° West  Level FlightAware Approximate
Fri 11:15:00 PM 24.5010 -36.2219 290° West  Level FlightAware Approximate
Fri 11:16:00 PM 24.5445 -36.3520 290° West  Level FlightAware Approximate
Fri 11:17:00 PM 24.5879 -36.4821 290° West  Level FlightAware Approximate
Fri 11:18:00 PM 24.6313 -36.6123 290° West  Level FlightAware Approximate
Fri 11:19:00 PM 24.6744 -36.7426 290° West  Level FlightAware Approximate
Fri 11:20:00 PM 24.7170 -36.8733 289° West  Level Estimated
Fri 11:21:00 PM 24.7597 -37.0039 290° West  Level FlightAware Approximate
Fri 11:22:00 PM 24.8023 -37.1346 290° West  Level FlightAware Approximate
Fri 11:23:00 PM 24.8448 -37.2654 290° West  Level FlightAware Approximate
Fri 11:24:00 PM 24.8871 -37.3962 290° West  Level FlightAware Approximate
Fri 11:25:00 PM 24.9294 -37.5272 290° West  Level FlightAware Approximate
Fri 11:25:07 PM 22.0000 -40.0000 300° West 478 550 38,000  Level New York Oceanic (ODAPS)
Fri 11:26:00 PM 24.9715 -37.6583 290° West  Level FlightAware Approximate
Fri 11:27:00 PM 25.0135 -37.7894 289° West  Level FlightAware Approximate
Fri 11:28:00 PM 25.0552 -37.9207 289° West  Level Estimated
Fri 11:29:00 PM 25.0972 -38.0520 290° West  Level FlightAware Approximate
Fri 11:30:00 PM 25.1392 -38.1833 289° West  Level FlightAware Approximate
Fri 11:31:00 PM 22.4402 -40.8332 299° West 478 550 38,000  Level FlightAware Transoceanic
Fri 11:32:00 PM 22.5046 -40.9568 299° West 478 550 38,000  Level FlightAware Transoceanic
Fri 11:33:00 PM 22.5690 -41.0806 299° West 478 550 38,000  Level FlightAware Transoceanic
Fri 11:34:00 PM 22.6332 -41.2044 299° West 478 550 38,000  Level FlightAware Transoceanic
Fri 11:35:00 PM 22.6973 -41.3284 299° West 478 550 38,000  Level FlightAware Transoceanic
Fri 11:36:00 PM 22.7614 -41.4525 299° West 478 550 38,000  Level FlightAware Transoceanic
Fri 11:37:00 PM 22.8253 -41.5767 299° West 478 550 38,000  Level FlightAware Transoceanic
Fri 11:37:40 PM 22.8333 -41.5833 299° West 478 550 38,000  Level New York Oceanic (ODAPS)
Fri 11:38:00 PM 22.8892 -41.7011 299° West 478 550 38,000  Level FlightAware Transoceanic
Fri 11:39:00 PM 22.9529 -41.8255 299° West 478 550 38,000  Level FlightAware Transoceanic
Fri 11:40:00 PM 23.0166 -41.9501 299° West 478 550 38,000  Level FlightAware Transoceanic
Fri 11:41:00 PM 23.0802 -42.0748 299° West 478 550 38,000  Level FlightAware Transoceanic
Fri 11:42:00 PM 23.1436 -42.1996 299° West 478 550 38,000  Level FlightAware Transoceanic
Fri 11:43:00 PM 23.2070 -42.3245 299° West 478 550 38,000  Level FlightAware Transoceanic
Fri 11:44:00 PM 23.2766 -42.4549 299° West 478 550 38,000  Level FlightAware Transoceanic
Fri 11:45:00 PM 23.3396 -42.5799 299° West 478 550 38,000  Level FlightAware Transoceanic
Fri 11:46:00 PM 23.4024 -42.7050 299° West 478 550 38,000  Level FlightAware Transoceanic
Fri 11:47:00 PM 23.4651 -42.8302 299° West 478 550 38,000  Level FlightAware Transoceanic
Fri 11:48:00 PM 23.5278 -42.9555 299° West 478 550 38,000  Level FlightAware Transoceanic
Fri 11:49:00 PM 23.5903 -43.0810 299° West 478 550 38,000  Level FlightAware Transoceanic
Fri 11:50:00 PM 23.6527 -43.2066 298° West 478 550 38,000  Level FlightAware Transoceanic
Fri 11:51:00 PM 23.7151 -43.3323 298° West 478 550 38,000  Level FlightAware Transoceanic
Fri 11:51:32 PM 23.7167 -43.3500 299° West 482 555 38,000  Level New York Oceanic (ODAPS)
Fri 11:52:00 PM 23.7773 -43.4581 298° West 478 550 38,000  Level FlightAware Transoceanic
Fri 11:53:00 PM 23.8394 -43.5840 298° West 478 550 38,000  Level FlightAware Transoceanic
Fri 11:54:00 PM 23.9015 -43.7101 298° West 478 550 38,000  Level FlightAware Transoceanic
Fri 11:55:00 PM 23.9634 -43.8362 298° West 478 550 38,000  Level FlightAware Transoceanic
Fri 11:56:00 PM 24.0252 -43.9625 298° West 478 550 38,000  Level FlightAware Transoceanic
Fri 11:57:00 PM 24.0880 -44.1017 298° West 482 555 38,000  Level FlightAware Transoceanic
Fri 11:58:00 PM 24.1495 -44.2274 298° West 482 555 38,000  Level FlightAware Transoceanic
Fri 11:59:00 PM 24.2110 -44.3532 298° West 482 555 38,000  Level FlightAware Transoceanic
Sat 12:00:00 AM 24.2723 -44.4791 298° West 482 555 38,000  Level FlightAware Transoceanic
Sat 12:01:00 AM 24.3335 -44.6052 298° West 482 555 38,000  Level FlightAware Transoceanic
Sat 12:02:00 AM 24.3946 -44.7314 298° West 482 555 38,000  Level FlightAware Transoceanic
Sat 12:03:00 AM 24.4557 -44.8577 298° West 482 555 38,000  Level FlightAware Transoceanic
Sat 12:04:00 AM 24.5166 -44.9841 298° West 482 555 38,000  Level FlightAware Transoceanic
Sat 12:05:00 AM 24.5774 -45.1107 298° West 482 555 38,000  Level FlightAware Transoceanic
Sat 12:05:21 AM 24.5833 -45.1167 298° West 474 545 38,000  Level New York Oceanic (ODAPS)
Sat 12:06:00 AM 24.6381 -45.2374 298° West 482 555 38,000  Level FlightAware Transoceanic
Sat 12:07:00 AM 24.6987 -45.3642 298° West 482 555 38,000  Level FlightAware Transoceanic
Sat 12:08:00 AM 24.7591 -45.4911 298° West 482 555 38,000  Level FlightAware Transoceanic
Sat 12:09:00 AM 24.8195 -45.6181 298° West 482 555 38,000  Level FlightAware Transoceanic
Sat 12:10:00 AM 24.8798 -45.7453 298° West 482 555 38,000  Level FlightAware Transoceanic
Sat 12:11:00 AM 24.9408 -45.8735 297° West 474 545 38,000  Level FlightAware Transoceanic
Sat 12:12:00 AM 25.0000 -46.0000 300° West 474 545 38,000  Level FlightAware Transoceanic
Sat 12:12:15 AM 25.0000 -46.0000 300° West 479 551 38,000  Level New York Oceanic (ODAPS)
Sat 12:13:00 AM 25.0662 -46.1269 300° West 474 545 38,000  Level FlightAware Transoceanic
Sat 12:14:00 AM 25.1323 -46.2540 300° West 474 545 38,000  Level FlightAware Transoceanic
Sat 12:15:00 AM 25.1983 -46.3812 300° West 474 545 38,000  Level FlightAware Transoceanic
Sat 12:16:00 AM 25.2642 -46.5085 300° West 474 545 38,000  Level FlightAware Transoceanic
Sat 12:17:00 AM 25.3299 -46.6360 300° West 474 545 38,000  Level FlightAware Transoceanic
Sat 12:18:00 AM 25.3956 -46.7636 300° West 479 551 38,000  Level FlightAware Transoceanic
Sat 12:19:00 AM 25.4611 -46.8914 300° West 479 551 38,000  Level FlightAware Transoceanic
Sat 12:19:22 AM 25.4833 -46.9167 299° West 490 564 38,000  Level New York Oceanic (ODAPS)
Sat 12:20:00 AM 25.5266 -47.0193 300° West 479 551 38,000  Level FlightAware Transoceanic
Sat 12:21:00 AM 25.5919 -47.1473 299° West 479 551 38,000  Level FlightAware Transoceanic
Sat 12:22:00 AM 25.6571 -47.2755 299° West 479 551 38,000  Level FlightAware Transoceanic
Sat 12:23:00 AM 25.7222 -47.4038 299° West 479 551 38,000  Level FlightAware Transoceanic
Sat 12:24:00 AM 25.7872 -47.5323 299° West 479 551 38,000  Level FlightAware Transoceanic
Sat 12:25:00 AM 25.8853 -47.7133 299° West 490 564 38,000  Level FlightAware Transoceanic
Sat 12:26:00 AM 25.9519 -47.8466 299° West 490 564 38,000  Level FlightAware Transoceanic
Sat 12:27:00 AM 26.0183 -47.9800 299° West 490 564 38,000  Level FlightAware Transoceanic
Sat 12:28:00 AM 26.0846 -48.1136 299° West 490 564 38,000  Level FlightAware Transoceanic
Sat 12:29:00 AM 26.1508 -48.2474 299° West 490 564 38,000  Level FlightAware Transoceanic
Sat 12:30:00 AM 26.2169 -48.3813 299° West 490 564 38,000  Level FlightAware Transoceanic
Sat 12:31:00 AM 26.2829 -48.5153 299° West 490 564 38,000  Level FlightAware Transoceanic
Sat 12:32:00 AM 26.3487 -48.6495 299° West 490 564 38,000  Level FlightAware Transoceanic
Sat 12:33:00 AM 26.4144 -48.7839 299° West 490 564 38,000 1,765 Level FlightAware Transoceanic
Sat 12:33:08 AM 26.3833 -48.7500 299° West 484 557 40,000  Climbing New York Oceanic (ODAPS)
Sat 12:34:00 AM 26.4800 -48.9184 299° West 490 564 38,000 -1,071 Descending FlightAware Transoceanic
Sat 12:35:00 AM 26.5454 -49.0531 298° West 490 564 38,000  Level FlightAware Transoceanic
Sat 12:36:00 AM 26.6107 -49.1879 298° West 490 564 38,000  Level FlightAware Transoceanic
Sat 12:37:00 AM 26.6759 -49.3228 298° West 490 564 38,000  Level FlightAware Transoceanic
Sat 12:38:00 AM 26.7410 -49.4580 298° West 490 564 38,000 1,000 Level FlightAware Transoceanic
Sat 12:39:00 AM 26.7957 -49.5818 299° West 484 557 40,000 1,000 Climbing FlightAware Transoceanic
Sat 12:40:00 AM 26.8639 -49.7211 299° West 484 557 40,000  Level FlightAware Transoceanic
Sat 12:41:00 AM 26.9320 -49.8604 299° West 484 557 40,000  Level FlightAware Transoceanic
Sat 12:42:00 AM 27.0000 -50.0000 292° West 484 557 40,000  Level FlightAware Transoceanic
Sat 12:42:46 AM 27.0000 -50.0000 292° West 484 557 40,000  Level New York Oceanic (ODAPS)
Sat 12:43:00 AM 27.0518 -50.1437 292° West 484 557 40,000  Level FlightAware Transoceanic
Sat 12:44:00 AM 27.1035 -50.2875 292° West 484 557 40,000  Level FlightAware Transoceanic
Sat 12:45:00 AM 27.1550 -50.4315 292° West 484 557 40,000  Level FlightAware Transoceanic
Sat 12:46:00 AM 27.2064 -50.5756 292° West 484 557 40,000  Level FlightAware Transoceanic
Sat 12:46:59 AM 27.2167 -50.6000 292° West 485 558 40,000  Level New York Oceanic (ODAPS)
Sat 12:47:00 AM 27.2576 -50.7198 292° West 484 557 40,000  Level FlightAware Transoceanic
Sat 12:48:00 AM 27.3087 -50.8641 292° West 484 557 40,000  Level FlightAware Transoceanic
Sat 12:49:00 AM 27.3431 -50.9615 292° West 484 557 40,000  Level FlightAware Transoceanic
Sat 12:50:00 AM 27.3916 -51.0994 292° West 484 557 40,000  Level FlightAware Transoceanic
Sat 12:51:00 AM 27.4399 -51.2374 292° West 484 557 40,000  Level FlightAware Transoceanic
Sat 12:52:00 AM 27.4881 -51.3754 291° West 484 557 40,000  Level FlightAware Transoceanic
Sat 12:53:00 AM 27.5121 -51.4407 291° West 485 558 40,000  Level FlightAware Transoceanic
Sat 12:54:00 AM 27.5609 -51.5812 291° West 485 558 40,000  Level FlightAware Transoceanic
Sat 12:55:00 AM 27.6095 -51.7219 291° West 485 558 40,000  Level FlightAware Transoceanic
Sat 12:56:00 AM 27.6580 -51.8627 291° West 485 558 40,000  Level FlightAware Transoceanic
Sat 12:57:00 AM 27.7063 -52.0036 291° West 485 558 40,000  Level FlightAware Transoceanic
Sat 12:58:00 AM 27.7545 -52.1447 291° West 485 558 40,000  Level FlightAware Transoceanic
Sat 12:59:00 AM 27.8025 -52.2858 291° West 485 558 40,000  Level FlightAware Transoceanic
Sat 01:00:00 AM 27.8504 -52.4271 291° West 485 558 40,000  Level FlightAware Transoceanic
Sat 01:01:00 AM 27.8982 -52.5686 291° West 485 558 40,000  Level FlightAware Transoceanic
Sat 01:01:00 AM 27.9000 -52.5667 291° West 486 559 40,000  Level New York Oceanic (ODAPS)
Sat 01:02:00 AM 27.9458 -52.7101 291° West 485 558 40,000  Level FlightAware Transoceanic
Sat 01:03:00 AM 27.9933 -52.8518 291° West 485 558 40,000  Level FlightAware Transoceanic
Sat 01:04:00 AM 28.0406 -52.9936 291° West 485 558 40,000  Level FlightAware Transoceanic
Sat 01:05:00 AM 28.0878 -53.1355 291° West 485 558 40,000  Level FlightAware Transoceanic
Sat 01:06:00 AM 28.1348 -53.2775 291° West 485 558 40,000  Level FlightAware Transoceanic
Sat 01:07:00 AM 28.1952 -53.4554 290° West 486 559 40,000  Level FlightAware Transoceanic
Sat 01:08:00 AM 28.2439 -53.6040 290° West 486 559 40,000  Level FlightAware Transoceanic
Sat 01:09:00 AM 28.2924 -53.7528 290° West 486 559 40,000  Level FlightAware Transoceanic
Sat 01:10:00 AM 28.3407 -53.9016 290° West 486 559 40,000  Level FlightAware Transoceanic
Sat 01:11:00 AM 28.3888 -54.0506 290° West 486 559 40,000  Level FlightAware Transoceanic
Sat 01:12:00 AM 28.4368 -54.1998 290° West 486 559 40,000  Level FlightAware Transoceanic
Sat 01:13:00 AM 28.4847 -54.3491 290° West 486 559 40,000  Level FlightAware Transoceanic
Sat 01:14:00 AM 28.5324 -54.4985 290° West 486 559 40,000  Level FlightAware Transoceanic
Sat 01:14:43 AM 28.5500 -54.5667 290° West 498 573 40,000  Level New York Oceanic (ODAPS)
Sat 01:15:00 AM 28.5799 -54.6480 290° West 486 559 40,000  Level FlightAware Transoceanic
Sat 01:16:00 AM 28.6272 -54.7977 290° West 486 559 40,000  Level FlightAware Transoceanic
Sat 01:17:00 AM 28.6744 -54.9475 290° West 486 559 40,000  Level FlightAware Transoceanic
Sat 01:18:00 AM 28.7214 -55.0975 290° West 486 559 40,000  Level FlightAware Transoceanic
Sat 01:19:00 AM 28.7682 -55.2476 290° West 486 559 40,000  Level FlightAware Transoceanic
Sat 01:20:00 AM 28.8019 -55.3614 290° West 498 573 40,000  Level FlightAware Transoceanic
Sat 01:21:00 AM 28.8517 -55.5209 290° West 498 573 40,000  Level FlightAware Transoceanic
Sat 01:22:00 AM 28.9013 -55.6804 290° West 498 573 40,000  Level FlightAware Transoceanic
Sat 01:23:00 AM 28.9508 -55.8401 289° West 498 573 40,000  Level FlightAware Transoceanic
Sat 01:24:00 AM 29.0000 -56.0000 287° West 498 573 40,000  Level FlightAware Transoceanic
Sat 01:24:24 AM 29.0000 -56.0000 287° West 491 565 40,000  Level New York Oceanic (ODAPS)
Sat 01:25:00 AM 29.0392 -56.1467 287° West 498 573 40,000  Level FlightAware Transoceanic
Sat 01:26:00 AM 29.0781 -56.2936 287° West 498 573 40,000  Level FlightAware Transoceanic
Sat 01:27:00 AM 29.1170 -56.4405 287° West 498 573 40,000  Level FlightAware Transoceanic
Sat 01:28:00 AM 29.1556 -56.5876 287° West 498 573 40,000  Level FlightAware Transoceanic
Sat 01:28:36 AM 29.1667 -56.6333 287° West 499 574 40,000  Level New York Oceanic (ODAPS)
Sat 01:29:00 AM 29.1942 -56.7347 287° West 498 573 40,000  Level FlightAware Transoceanic
Sat 01:30:00 AM 29.2325 -56.8820 287° West 491 565 40,000  Level FlightAware Transoceanic
Sat 01:31:00 AM 29.2707 -57.0294 287° West 491 565 40,000  Level FlightAware Transoceanic
Sat 01:32:00 AM 29.3087 -57.1769 286° West 491 565 40,000  Level FlightAware Transoceanic
Sat 01:33:00 AM 29.3466 -57.3245 286° West 491 565 40,000  Level FlightAware Transoceanic
Sat 01:34:00 AM 29.4023 -57.5460 286° West 499 574 40,000  Level FlightAware Transoceanic
Sat 01:35:00 AM 29.4410 -57.6985 286° West 499 574 40,000  Level FlightAware Transoceanic
Sat 01:36:00 AM 29.4795 -57.8511 286° West 499 574 40,000  Level FlightAware Transoceanic
Sat 01:37:00 AM 29.5178 -58.0039 286° West 499 574 40,000  Level FlightAware Transoceanic
Sat 01:38:00 AM 29.5560 -58.1567 286° West 499 574 40,000  Level FlightAware Transoceanic
Sat 01:39:00 AM 29.5940 -58.3097 286° West 499 574 40,000  Level FlightAware Transoceanic
Sat 01:40:00 AM 29.6318 -58.4628 286° West 499 574 40,000  Level FlightAware Transoceanic
Sat 01:41:00 AM 29.6694 -58.6160 286° West 499 574 40,000  Level FlightAware Transoceanic
Sat 01:42:00 AM 29.7068 -58.7693 286° West 499 574 40,000  Level FlightAware Transoceanic
Sat 01:42:28 AM 29.7000 -58.7333 286° West 493 567 40,000  Level New York Oceanic (ODAPS)
Sat 01:43:00 AM 29.7441 -58.9228 286° West 499 574 40,000  Level FlightAware Transoceanic
Sat 01:44:00 AM 29.7812 -59.0763 286° West 499 574 40,000  Level FlightAware Transoceanic
Sat 01:45:00 AM 29.8181 -59.2300 285° West 499 574 40,000  Level FlightAware Transoceanic
Sat 01:46:00 AM 29.8548 -59.3838 285° West 499 574 40,000  Level FlightAware Transoceanic
Sat 01:47:00 AM 29.8914 -59.5377 285° West 499 574 40,000  Level FlightAware Transoceanic
Sat 01:48:00 AM 29.9013 -59.5769 285° West 493 567 40,000  Level FlightAware Transoceanic
Sat 01:49:00 AM 29.9344 -59.7179 285° West 493 567 40,000  Level FlightAware Transoceanic
Sat 01:50:00 AM 29.9673 -59.8589 285° West 493 567 40,000  Level FlightAware Transoceanic
Sat 01:50:52 AM 30.0000 -60.0000 278° West 473 544 40,000  Level New York Oceanic (ODAPS)
Sat 01:51:00 AM 30.0000 -60.0000 278° West 493 567 40,000  Level FlightAware Transoceanic
Sat 01:52:00 AM 30.0176 -60.1479 278° West 493 567 40,000  Level FlightAware Transoceanic
Sat 01:53:00 AM 30.0350 -60.2959 278° West 493 567 40,000  Level FlightAware Transoceanic
Sat 01:54:00 AM 30.0523 -60.4439 278° West 493 567 40,000  Level FlightAware Transoceanic
Sat 01:55:00 AM 30.0694 -60.5919 278° West 493 567 40,000  Level FlightAware Transoceanic
Sat 01:56:00 AM 30.0863 -60.7400 277° West 493 567 40,000  Level FlightAware Transoceanic
Sat 01:56:22 AM 30.1000 -60.8167 277° West 461 531 40,000  Level New York Oceanic (ODAPS)
Sat 01:57:00 AM 30.1051 -60.9060 277° West 473 544 40,000  Level FlightAware Transoceanic
Sat 01:58:00 AM 30.1220 -61.0572 277° West 473 544 40,000  Level FlightAware Transoceanic
Sat 01:59:00 AM 30.1388 -61.2084 277° West 473 544 40,000  Level FlightAware Transoceanic
Sat 02:00:00 AM 30.1553 -61.3597 277° West 473 544 40,000  Level FlightAware Transoceanic
Sat 02:01:00 AM 30.1717 -61.5110 277° West 473 544 40,000  Level FlightAware Transoceanic
Sat 02:02:00 AM 30.1959 -61.6965 277° West 461 531 40,000  Level FlightAware Transoceanic
Sat 02:03:00 AM 30.2113 -61.8433 277° West 461 531 40,000  Level FlightAware Transoceanic
Sat 02:04:00 AM 30.2265 -61.9902 277° West 461 531 40,000  Level FlightAware Transoceanic
Sat 02:05:00 AM 30.2416 -62.1371 277° West 461 531 40,000  Level FlightAware Transoceanic
Sat 02:05:49 AM 30.2486 -62.2336 276° West 487 560 40,000  Level New York Center
Sat 02:06:00 AM 30.2565 -62.2840 277° West 461 531 40,000  Level FlightAware Transoceanic
Sat 02:06:48 AM 30.2622 -62.3667 277° West 467 537 40,000  Level New York Center
Sat 02:07:00 AM 30.2713 -62.4310 277° West 461 531 40,000  Level FlightAware Transoceanic
Sat 02:07:49 AM 30.2814 -62.5228 278° West 453 521 40,000  Level New York Center
Sat 02:08:00 AM 30.2859 -62.5781 277° West 461 531 40,000  Level FlightAware Transoceanic
Sat 02:08:48 AM 30.2914 -62.6658 275° West 474 545 40,000  Level New York Center
Sat 02:09:00 AM 30.3003 -62.7251 276° West 461 531 40,000  Level FlightAware Transoceanic
Sat 02:09:47 AM 30.3081 -62.8225 277° West 460 529 40,000  Level New York Center
Sat 02:10:00 AM 30.3146 -62.8723 276° West 461 531 40,000  Level FlightAware Transoceanic
Sat 02:10:48 AM 30.3219 -62.9700 276° West 465 535 40,000  Level New York Center
Sat 02:11:50 AM 30.3350 -63.1031 277° West 462 532 40,000  Level New York Center
Sat 02:12:48 AM 30.4064 -63.2456 300° West 462 532 40,000  Level New York Center
Sat 02:13:49 AM 30.4828 -63.3689 306° West 470 541 40,000  Level New York Center
Sat 02:14:48 AM 30.5544 -63.4856 306° West 491 565 40,000 200 Level New York Center
Sat 02:15:49 AM 30.6417 -63.6203 307° West 491 565 40,400 492 Climbing New York Center
Sat 02:16:50 AM 30.7131 -63.7325 307° West 486 559 41,000 300 Climbing New York Center
Sat 02:17:49 AM 30.7447 -63.8819 284° West 446 513 41,000  Level New York Center
Sat 02:18:48 AM 30.7569 -64.0256 276° West 446 513 41,000  Level New York Center
Sat 02:19:47 AM 30.7686 -64.1572 276° West 447 514 41,000  Level New York Center
Sat 02:20:47 AM 30.7814 -64.3153 275° West 452 520 41,000  Level New York Center
Sat 02:21:49 AM 30.7867 -64.4547 273° West 447 514 41,000  Level New York Center
Sat 02:22:48 AM 30.7786 -64.5758 266° West 433 498 41,000  Level New York Center
Sat 02:23:48 AM 30.7658 -64.7308 265° West 433 498 41,000  Level New York Center
Sat 02:24:49 AM 30.7575 -64.8567 266° West 439 505 41,000  Level New York Center
Sat 02:25:49 AM 30.7442 -65.0069 264° West 446 513 41,000  Level New York Center
Sat 02:26:49 AM 30.7317 -65.1403 264° West 436 502 41,000  Level New York Center
Sat 02:27:47 AM 30.7233 -65.2756 266° West 451 519 41,000  Level New York Center
Sat 02:28:49 AM 30.7114 -65.4258 265° West 445 512 41,000  Level New York Center
Sat 02:29:47 AM 30.7008 -65.5636 265° West 445 512 41,000  Level New York Center
Sat 02:30:47 AM 30.6919 -65.6894 265° West 445 512 41,000  Level New York Center
Sat 02:31:47 AM 30.6775 -65.8442 264° West 445 512 41,000  Level New York Center
Sat 02:32:50 AM 30.6700 -65.9697 266° West 444 511 41,000  Level New York Center
Sat 02:33:47 AM 30.6553 -66.1175 263° West 428 493 41,000  Level New York Center
Sat 02:34:49 AM 30.6481 -66.2550 267° West 433 498 41,000  Level New York Center
Sat 02:35:49 AM 30.6381 -66.3806 265° West 428 493 41,000  Level New York Center
Sat 02:36:48 AM 30.6247 -66.5281 264° West 426 490 41,000  Level New York Center
Sat 02:37:47 AM 30.6275 -66.6700 271° West 432 497 41,000  Level New York Center
Sat 02:38:49 AM 30.6356 -66.7875 275° West 432 497 41,000  Level New York Center
Sat 02:39:47 AM 30.6447 -66.9411 274° West 440 506 41,000  Level New York Center
Sat 02:40:48 AM 30.6550 -67.0706 275° West 446 513 41,000  Level New York Center
Sat 02:41:47 AM 30.6617 -67.2197 273° West 439 505 41,000  Level New York Center
Sat 02:42:49 AM 30.6614 -67.3519 270° West 429 494 41,000  Level New York Center
Sat 02:44:37 AM 30.6833 -67.6000 279° West 445 512 41,000  Level New York Oceanic (ODAPS)
Sat 02:50:00 AM 30.8001 -68.4452 279° West 445 512 41,000  Level FlightAware Transoceanic
Sat 02:51:00 AM 30.8191 -68.5863 279° West 445 512 41,000  Level FlightAware Transoceanic
Sat 02:52:00 AM 30.8379 -68.7274 279° West 445 512 41,000  Level FlightAware Transoceanic
Sat 02:53:00 AM 30.8565 -68.8686 279° West 445 512 41,000  Level FlightAware Transoceanic
Sat 02:54:00 AM 30.8750 -69.0098 279° West 445 512 41,000  Level FlightAware Transoceanic
Sat 02:55:00 AM 30.8933 -69.1511 279° West 445 512 41,000  Level FlightAware Transoceanic
Sat 02:56:00 AM 30.9115 -69.2925 278° West 445 512 41,000  Level FlightAware Transoceanic
Sat 02:57:00 AM 30.9295 -69.4339 278° West 445 512 41,000  Level FlightAware Transoceanic
Sat 02:57:13 AM 30.9000 -69.2333 279° West 437 503 41,000  Level New York Oceanic (ODAPS)
Sat 02:58:00 AM 30.9473 -69.5753 278° West 445 512 41,000  Level FlightAware Transoceanic
Sat 02:59:00 AM 30.9650 -69.7168 278° West 445 512 41,000  Level FlightAware Transoceanic
Sat 03:00:00 AM 30.9826 -69.8584 278° West 445 512 41,000  Level FlightAware Transoceanic
Sat 03:01:00 AM 31.0000 -70.0000 275° West 445 512 41,000  Level FlightAware Transoceanic
Sat 03:02:00 AM 31.0111 -70.1452 275° West 445 512 41,000  Level FlightAware Transoceanic
Sat 03:02:44 AM 31.0000 -70.0000 275° West 437 503 41,000  Level New York Oceanic (ODAPS)
Sat 03:03:00 AM 31.0221 -70.2905 275° West 437 503 41,000  Level FlightAware Transoceanic
Sat 03:04:00 AM 31.0329 -70.4358 275° West 437 503 41,000  Level FlightAware Transoceanic
Sat 03:05:00 AM 31.0436 -70.5811 275° West 437 503 41,000  Level FlightAware Transoceanic
Sat 03:06:00 AM 31.0541 -70.7264 275° West 437 503 41,000  Level FlightAware Transoceanic
Sat 03:07:00 AM 31.0644 -70.8718 275° West 437 503 41,000  Level FlightAware Transoceanic
Sat 03:08:00 AM 31.0746 -71.0172 275° West 437 503 41,000  Level FlightAware Transoceanic
Sat 03:09:00 AM 31.0732 -70.9964 275° West 437 503 41,000  Level FlightAware Transoceanic
Sat 03:10:00 AM 31.0830 -71.1389 275° West 437 503 41,000  Level FlightAware Transoceanic
Sat 03:10:05 AM 31.0833 -71.1833 275° West 443 510 41,000  Level New York Oceanic (ODAPS)
Sat 03:11:00 AM 31.0926 -71.2814 274° West 437 503 41,000  Level FlightAware Transoceanic
Sat 03:12:00 AM 31.1021 -71.4239 274° West 437 503 41,000  Level FlightAware Transoceanic
Sat 03:13:00 AM 31.1115 -71.5665 274° West 437 503 41,000  Level FlightAware Transoceanic
Sat 03:14:00 AM 31.1207 -71.7091 274° West 437 503 41,000  Level FlightAware Transoceanic
Sat 03:15:00 AM 31.1297 -71.8517 274° West 437 503 41,000  Level FlightAware Transoceanic
Sat 03:16:00 AM 31.1387 -72.0323 274° West 443 510 41,000  Level FlightAware Transoceanic
Sat 03:17:00 AM 31.1474 -72.1739 274° West 443 510 41,000  Level FlightAware Transoceanic
Sat 03:18:00 AM 31.1559 -72.3155 274° West 443 510 41,000  Level FlightAware Transoceanic
Sat 03:19:00 AM 31.1643 -72.4571 274° West 443 510 41,000  Level FlightAware Transoceanic
Sat 03:20:00 AM 31.1725 -72.5988 274° West 443 510 41,000  Level FlightAware Transoceanic
Sat 03:21:00 AM 31.1805 -72.7404 274° West 443 510 41,000  Level FlightAware Transoceanic
Sat 03:22:00 AM 31.1885 -72.8821 274° West 443 510 41,000  Level FlightAware Transoceanic
Sat 03:23:00 AM 31.1962 -73.0239 274° West 443 510 41,000  Level FlightAware Transoceanic
Sat 03:23:57 AM 31.2000 -73.1667 274° West 446 513 41,000  Level New York Oceanic (ODAPS)
Sat 03:24:00 AM 31.2038 -73.1656 274° West 443 510 41,000  Level FlightAware Transoceanic
Sat 03:25:00 AM 31.2113 -73.3074 273° West 443 510 41,000  Level FlightAware Transoceanic
Sat 03:26:00 AM 31.2185 -73.4492 273° West 443 510 41,000  Level FlightAware Transoceanic
Sat 03:27:00 AM 31.2257 -73.5910 273° West 443 510 41,000  Level FlightAware Transoceanic
Sat 03:28:00 AM 31.2327 -73.7329 273° West 443 510 41,000  Level FlightAware Transoceanic
Sat 03:29:00 AM 31.2395 -73.8747 273° West 443 510 41,000  Level FlightAware Transoceanic
Sat 03:30:00 AM 31.2447 -74.0501 273° West 446 513 41,000  Level FlightAware Transoceanic
Sat 03:31:00 AM 31.2516 -74.1974 273° West 446 513 41,000  Level FlightAware Transoceanic
Sat 03:32:00 AM 31.2583 -74.3448 273° West 446 513 41,000  Level FlightAware Transoceanic
Sat 03:33:00 AM 31.2648 -74.4922 273° West 446 513 41,000  Level FlightAware Transoceanic
Sat 03:34:00 AM 31.2712 -74.6395 273° West 446 513 41,000  Level FlightAware Transoceanic
Sat 03:35:00 AM 31.2773 -74.7869 273° West 446 513 41,000  Level FlightAware Transoceanic
Sat 03:36:00 AM 31.2834 -74.9344 273° West 446 513 41,000  Level FlightAware Transoceanic
Sat 03:37:00 AM 31.2892 -75.0818 273° West 446 513 41,000  Level FlightAware Transoceanic
Sat 03:37:47 AM 31.3000 -75.1500 272° West 452 520 41,000  Level New York Oceanic (ODAPS)
Sat 03:38:00 AM 31.2949 -75.2293 273° West 446 513 41,000  Level FlightAware Transoceanic
Sat 03:39:00 AM 31.3004 -75.3767 272° West 446 513 41,000  Level FlightAware Transoceanic
Sat 03:40:00 AM 31.3058 -75.5242 272° West 446 513 41,000  Level FlightAware Transoceanic
Sat 03:41:00 AM 31.3110 -75.6718 272° West 446 513 41,000  Level FlightAware Transoceanic
Sat 03:42:00 AM 31.3160 -75.8193 272° West 446 513 41,000  Level FlightAware Transoceanic
Sat 03:43:00 AM 31.3241 -75.9206 272° West 452 520 41,000  Level FlightAware Transoceanic
Sat 03:44:00 AM 31.3283 -76.0748 272° West 452 520 41,000  Level FlightAware Transoceanic
Sat 03:45:00 AM 31.3324 -76.2289 272° West 452 520 41,000  Level FlightAware Transoceanic
Sat 03:46:00 AM 31.3363 -76.3831 272° West 452 520 41,000  Level FlightAware Transoceanic
Sat 03:47:00 AM 31.3400 -76.5373 272° West 452 520 41,000  Level FlightAware Transoceanic
Sat 03:47:40 AM 31.3431 -76.6153 270° West 502 578 41,000  Level Jacksonville Center
Sat 03:48:00 AM 31.3435 -76.6915 271° West 452 520 41,000  Level FlightAware Transoceanic
Sat 03:48:40 AM 31.3481 -76.7608 272° West 490 564 41,000  Level Jacksonville Center
Sat 03:49:00 AM 31.3468 -76.8458 271° West 452 520 41,000  Level FlightAware Transoceanic
Sat 03:49:40 AM 31.3511 -76.9089 271° West 476 548 41,000  Level Jacksonville Center
Sat 03:50:00 AM 31.3500 -77.0000 270° West 452 520 41,000  Level FlightAware Transoceanic
Sat 03:50:40 AM 31.3539 -77.0619 271° West 462 532 41,000  Level Jacksonville Center
Sat 03:51:00 AM 31.3491 -77.1530 270° West 452 520 41,000  Level FlightAware Transoceanic
Sat 03:51:40 AM 31.3522 -77.2081 269° West 467 537 41,000 -60 Level Jacksonville Center
Sat 03:52:40 AM 31.3486 -77.3639 268° West 462 532 40,900 -50 Descending Jacksonville Center
Sat 03:53:40 AM 31.3469 -77.5172 269° West 474 545 40,900 50 Level Jacksonville Center
Sat 03:54:40 AM 31.3467 -77.6606 270° West 474 545 41,000  Climbing Jacksonville Center
Sat 03:55:40 AM 31.3447 -77.8189 269° West 482 555 40,900  Descending Jacksonville Center
Sat 03:56:40 AM 31.3425 -77.9744 269° West 476 548 41,000 50 Climbing Jacksonville Center
Sat 03:57:40 AM 31.3400 -78.1256 269° West 476 548 41,000  Level Jacksonville Center
Sat 04:03:21 AM 31.3270 -79.0380 269° West 488 562 41,000  Level FlightAware ADS-B
Sat 04:03:57 AM 31.3250 -79.1350 269° West 488 562 41,000  Level FlightAware ADS-B
Sat 04:04:30 AM 31.3230 -79.2220 268° West 489 563 41,000  Level FlightAware ADS-B
Sat 04:05:06 AM 31.3210 -79.3160 269° West 489 563 41,000  Level FlightAware ADS-B
Sat 04:05:41 AM 31.3180 -79.4100 268° West 488 562 41,000  Level FlightAware ADS-B
Sat 04:06:17 AM 31.3160 -79.5040 269° West 489 563 41,000  Level FlightAware ADS-B
Sat 04:06:55 AM 31.3120 -79.5990 267° West 485 558 41,000  Level FlightAware ADS-B
Sat 04:07:40 AM 31.3080 -79.7040 267° West 485 558 41,000  Level FlightAware ADS-B
Sat 04:08:15 AM 31.3050 -79.8120 268° West 484 557 41,000  Level FlightAware ADS-B
Sat 04:08:49 AM 31.3020 -79.9020 268° West 485 558 41,000  Level FlightAware ADS-B
Sat 04:09:24 AM 31.2990 -79.9940 268° West 486 559 41,000  Level FlightAware ADS-B
Sat 04:10:00 AM 31.2950 -80.0880 267° West 487 560 41,000  Level FlightAware ADS-B
Sat 04:10:36 AM 31.2920 -80.1810 268° West 488 562 41,000  Level FlightAware ADS-B
Sat 04:11:06 AM 31.2890 -80.2570 267° West 489 563 41,000  Level FlightAware ADS-B
Sat 04:11:44 AM 31.2860 -80.3490 268° West 489 563 41,000  Level FlightAware ADS-B
Sat 04:12:19 AM 31.2820 -80.4540 267° West 489 563 41,000  Level FlightAware ADS-B
Sat 04:12:55 AM 31.2780 -80.5480 267° West 487 560 41,000  Level FlightAware ADS-B
Sat 04:13:31 AM 31.2740 -80.6420 267° West 486 559 41,000  Level FlightAware ADS-B
Sat 04:14:06 AM 31.2700 -80.7330 267° West 487 560 41,000  Level FlightAware ADS-B
Sat 04:14:39 AM 31.2670 -80.8160 268° West 486 559 41,000  Level FlightAware ADS-B
Sat 04:15:15 AM 31.2630 -80.9130 267° West 487 560 41,000  Level FlightAware ADS-B
Sat 04:15:50 AM 31.2590 -81.0070 267° West 485 558 41,000  Level FlightAware ADS-B
Sat 04:16:26 AM 31.2550 -81.1000 267° West 485 558 41,000  Level FlightAware ADS-B
Sat 04:16:59 AM 31.2510 -81.1880 267° West 486 559 41,000  Level FlightAware ADS-B
Sat 04:17:34 AM 31.2470 -81.2790 267° West 488 562 41,000  Level FlightAware ADS-B
Sat 04:18:10 AM 31.2420 -81.3720 266° West 489 563 41,000  Level FlightAware ADS-B
Sat 04:18:40 AM 31.2380 -81.4520 267° West 489 563 41,000  Level FlightAware ADS-B
Sat 04:19:22 AM 31.2330 -81.5630 267° West 486 559 41,000  Level FlightAware ADS-B
Sat 04:19:54 AM 31.2290 -81.6480 267° West 485 558 41,000  Level FlightAware ADS-B
Sat 04:20:31 AM 31.2240 -81.7430 267° West 487 560 41,000  Level FlightAware ADS-B
Sat 04:21:01 AM 31.2200 -81.8240 267° West 489 563 41,000  Level FlightAware ADS-B
Sat 04:21:41 AM 31.2150 -81.9270 267° West 491 565 41,000  Level FlightAware ADS-B
Sat 04:22:16 AM 31.2100 -82.0210 266° West 492 566 41,000  Level FlightAware ADS-B
Sat 04:22:48 AM 31.2060 -82.1000 267° West 492 566 41,000  Level FlightAware ADS-B
Sat 04:23:26 AM 31.2010 -82.2070 267° West 493 567 41,000  Level FlightAware ADS-B
Sat 04:24:20 AM 31.1930 -82.3480 266° West 494 568 41,000  Level FlightAware ADS-B
Sat 04:24:54 AM 31.1880 -82.4360 266° West 494 568 41,000  Level FlightAware ADS-B
Sat 04:25:31 AM 31.1830 -82.5370 267° West 494 568 41,000  Level FlightAware ADS-B
Sat 04:26:12 AM 31.1770 -82.6350 266° West 493 567 41,000  Level FlightAware ADS-B
Sat 04:26:49 AM 31.1710 -82.7420 266° West 493 567 41,000  Level FlightAware ADS-B
Sat 04:27:18 AM 31.1673 -82.8119 266° West 493 567 41,000  Level FlightAware ADS-B
Sat 04:28:13 AM 31.1580 -82.9640 266° West 491 565 41,000  Level FlightAware ADS-B
Sat 04:28:51 AM 31.1520 -83.0690 266° West 491 565 41,000  Level FlightAware ADS-B
Sat 04:29:22 AM 31.1470 -83.1500 266° West 491 565 41,000  Level FlightAware ADS-B
Sat 04:29:59 AM 31.1410 -83.2470 266° West 490 564 41,000  Level FlightAware ADS-B
Sat 04:30:34 AM 31.1360 -83.3390 266° West 490 564 41,000  Level FlightAware ADS-B
Sat 04:31:15 AM 31.1290 -83.4460 266° West 491 565 41,000  Level FlightAware ADS-B
Sat 04:31:49 AM 31.1230 -83.5350 266° West 491 565 41,000  Level FlightAware ADS-B
Sat 04:32:18 AM 31.1184 -83.6139 266° West 491 565 41,000  Level FlightAware ADS-B (KONZ)
Sat 04:33:00 AM 31.1110 -83.7240 266° West 491 565 41,000  Level FlightAware ADS-B
Sat 04:33:07 AM 31.1102 -83.7405 267° West 491 565 41,000  Level FlightAware ADS-B (KONZ)
Sat 04:33:46 AM 31.1033 -83.8465 266° West 491 565 41,000  Level FlightAware ADS-B (KONZ)
Sat 04:34:31 AM 31.0955 -83.9636 266° West 490 564 41,000  Level FlightAware ADS-B (KONZ)
Sat 04:35:09 AM 31.0888 -84.0639 266° West 490 564 41,000  Level FlightAware ADS-B (KONZ)
Sat 04:35:51 AM 31.0813 -84.1748 265° West 490 564 41,000  Level FlightAware ADS-B (KONZ)
Sat 04:36:37 AM 31.0730 -84.2940 265° West 489 563 41,000  Level FlightAware ADS-B
Sat 04:36:42 AM 31.0720 -84.3092 266° West 490 564 41,000  Level FlightAware ADS-B (KONZ)
Sat 04:37:13 AM 31.0660 -84.3880 265° West 490 564 41,000  Level FlightAware ADS-B
Sat 04:37:24 AM 31.0646 -84.4148 267° West 491 565 41,000  Level FlightAware ADS-B (KONZ)
Sat 04:38:03 AM 31.0575 -84.5159 265° West 491 565 41,000  Level FlightAware ADS-B (KONZ)
Sat 04:38:41 AM 31.0499 -84.6219 265° West 493 567 41,000  Level FlightAware ADS-B (KONZ)
Sat 04:39:34 AM 31.0400 -84.7620 265° West 492 566 41,000  Level FlightAware ADS-B
Sat 04:40:07 AM 31.0340 -84.8430 265° West 492 566 41,000  Level FlightAware ADS-B
Sat 04:40:39 AM 31.0270 -84.9310 265° West 492 566 41,000  Level FlightAware ADS-B
Sat 04:41:15 AM 31.0200 -85.0240 265° West 491 565 41,000  Level FlightAware ADS-B
Sat 04:41:51 AM 31.0130 -85.1210 265° West 490 564 41,000  Level FlightAware ADS-B
Sat 04:42:27 AM 31.0060 -85.2060 265° West 490 564 41,000  Level FlightAware ADS-B
Sat 04:43:02 AM 30.9980 -85.3110 265° West 490 564 41,000  Level FlightAware ADS-B
Sat 04:43:39 AM 30.9910 -85.4060 265° West 492 566 41,000  Level FlightAware ADS-B
Sat 04:44:12 AM 30.9840 -85.4940 265° West 492 566 41,000  Level FlightAware ADS-B
Sat 04:44:47 AM 30.9770 -85.5840 265° West 492 566 41,000  Level FlightAware ADS-B
Sat 04:45:23 AM 30.9700 -85.6770 265° West 492 566 41,000  Level FlightAware ADS-B
Sat 04:45:57 AM 30.9620 -85.7700 264° West 493 567 41,000  Level FlightAware ADS-B
Sat 04:46:33 AM 30.9540 -85.8630 264° West 493 567 41,000  Level FlightAware ADS-B
Sat 04:47:09 AM 30.9470 -85.9600 265° West 493 567 41,000  Level FlightAware ADS-B
Sat 04:47:43 AM 30.9390 -86.0490 264° West 493 567 41,000  Level FlightAware ADS-B
Sat 04:48:17 AM 30.9320 -86.1400 265° West 494 568 41,000  Level FlightAware ADS-B
Sat 04:48:52 AM 30.9240 -86.2300 264° West 493 567 41,000  Level FlightAware ADS-B
Sat 04:49:29 AM 30.9150 -86.3300 264° West 493 567 41,000  Level FlightAware ADS-B
Sat 04:50:05 AM 30.9070 -86.4230 264° West 492 566 41,000  Level FlightAware ADS-B
Sat 04:50:36 AM 30.9010 -86.5040 265° West 492 566 41,000  Level FlightAware ADS-B
Sat 04:51:13 AM 30.8920 -86.6030 264° West 492 566 41,000  Level FlightAware ADS-B
Sat 04:51:47 AM 30.8840 -86.6940 264° West 492 566 41,000  Level FlightAware ADS-B
Sat 04:52:21 AM 30.8760 -86.7810 264° West 493 567 41,000  Level FlightAware ADS-B
Sat 04:52:57 AM 30.8680 -86.8770 264° West 493 567 41,000  Level FlightAware ADS-B
Sat 04:53:31 AM 30.8590 -86.9680 263° West 493 567 41,000  Level FlightAware ADS-B
Sat 04:54:09 AM 30.8500 -87.0660 264° West 492 566 41,000  Level FlightAware ADS-B
Sat 04:54:42 AM 30.8430 -87.1520 265° West 492 566 41,000  Level FlightAware ADS-B
Sat 04:55:17 AM 30.8340 -87.2460 264° West 493 567 41,000  Level FlightAware ADS-B
Sat 04:55:55 AM 30.8250 -87.3440 264° West 494 568 41,000  Level FlightAware ADS-B
Sat 04:56:27 AM 30.8170 -87.4310 264° West 494 568 41,000  Level FlightAware ADS-B
Sat 04:57:03 AM 30.8080 -87.5250 264° West 494 568 41,000  Level FlightAware ADS-B
Sat 04:57:39 AM 30.7990 -87.6190 264° West 492 566 41,000  Level FlightAware ADS-B
Sat 04:58:15 AM 30.7900 -87.7140 264° West 492 566 41,000  Level FlightAware ADS-B
Sat 04:58:43 AM 30.7830 -87.7860 264° West 493 567 41,000  Level FlightAware ADS-B
Sat 04:59:21 AM 30.7710 -87.8880 262° West 495 570 41,000  Level FlightAware ADS-B
Sat 04:59:58 AM 30.7560 -87.9810 259° West 496 571 41,000  Level FlightAware ADS-B
Sat 05:00:33 AM 30.7390 -88.0760 258° West 496 571 41,000  Level FlightAware ADS-B
Sat 05:01:10 AM 30.7220 -88.1710 258° West 497 572 41,000  Level FlightAware ADS-B
Sat 05:01:41 AM 30.7070 -88.2530 258° West 499 574 41,000  Level FlightAware ADS-B
Sat 05:02:17 AM 30.6900 -88.3480 258° West 500 575 41,000  Level FlightAware ADS-B
Sat 05:02:53 AM 30.6740 -88.4390 258° West 500 575 41,000  Level FlightAware ADS-B
Sat 05:03:29 AM 30.6580 -88.5390 259° West 502 578 41,000  Level FlightAware ADS-B
Sat 05:04:01 AM 30.6440 -88.6220 259° West 502 578 41,000  Level FlightAware ADS-B
Sat 05:04:37 AM 30.6280 -88.7160 259° West 502 578 41,000  Level FlightAware ADS-B
Sat 05:05:13 AM 30.6110 -88.8120 258° West 502 578 41,000  Level FlightAware ADS-B
Sat 05:05:47 AM 30.5960 -88.9020 259° West 501 577 41,000  Level FlightAware ADS-B
Sat 05:06:23 AM 30.5800 -88.9940 259° West 502 578 41,000  Level FlightAware ADS-B
Sat 05:06:57 AM 30.5640 -89.0870 259° West 505 581 41,000  Level FlightAware ADS-B
Sat 05:07:31 AM 30.5480 -89.1750 258° West 505 581 41,000  Level FlightAware ADS-B
Sat 05:08:10 AM 30.5300 -89.2790 259° West 504 580 41,000  Level FlightAware ADS-B
Sat 05:08:43 AM 30.5140 -89.3680 258° West 504 580 41,000  Level FlightAware ADS-B
Sat 05:09:19 AM 30.4980 -89.4620 259° West 504 580 41,000  Level FlightAware ADS-B
Sat 05:09:51 AM 30.4830 -89.5470 258° West 504 580 41,000  Level FlightAware ADS-B
Sat 05:10:27 AM 30.4660 -89.6420 258° West 505 581 41,000  Level FlightAware ADS-B
Sat 05:11:01 AM 30.4500 -89.7290 258° West 506 582 41,000  Level FlightAware ADS-B
Sat 05:11:35 AM 30.4340 -89.8220 259° West 506 582 41,000  Level FlightAware ADS-B
Sat 05:12:09 AM 30.4180 -89.9100 258° West 506 582 41,000  Level FlightAware ADS-B
Sat 05:12:48 AM 30.4000 -90.0060 258° West 505 581 41,000  Level FlightAware ADS-B
Sat 05:13:23 AM 30.3820 -90.1050 258° West 503 579 41,000  Level FlightAware ADS-B
Sat 05:13:53 AM 30.3680 -90.1820 258° West 502 578 41,000  Level FlightAware ADS-B
Sat 05:14:31 AM 30.3490 -90.2850 258° West 501 577 41,000  Level FlightAware ADS-B
Sat 05:15:18 AM 30.3270 -90.4040 258° West 500 575 41,000  Level FlightAware ADS-B
Sat 05:15:54 AM 30.3110 -90.4910 258° West 501 577 41,000  Level FlightAware ADS-B
Sat 05:16:32 AM 30.2930 -90.5830 257° West 501 577 41,000  Level FlightAware ADS-B
Sat 05:17:14 AM 30.2710 -90.7090 259° West 502 578 41,000  Level FlightAware ADS-B
Sat 05:18:09 AM 30.2430 -90.8550 258° West 501 577 41,000  Level FlightAware ADS-B
Sat 05:18:45 AM 30.2290 -90.9290 258° West 501 577 41,000  Level FlightAware ADS-B
Sat 05:19:17 AM 30.2190 -91.0240 263° West 498 573 41,000  Level FlightAware ADS-B
Sat 05:19:53 AM 30.2090 -91.1050 262° West 498 573 41,000  Level FlightAware ADS-B
Sat 05:20:45 AM 30.2110 -91.2450 271° West 493 567 41,000  Level FlightAware ADS-B
Sat 05:21:37 AM 30.2040 -91.3890 267° West 494 568 41,000  Level FlightAware ADS-B
Sat 05:22:14 AM 30.1990 -91.4720 266° West 494 568 41,000  Level FlightAware ADS-B
Sat 05:22:46 AM 30.2080 -91.3260 86° East 494 568 41,000  Level FlightAware ADS-B
Sat 05:23:38 AM 30.1880 -91.7080 267° West 494 568 41,000  Level FlightAware ADS-B
Sat 05:24:15 AM 30.1830 -91.7910 266° West 494 568 41,000  Level FlightAware ADS-B
Sat 05:24:51 AM 30.1780 -91.8720 266° West 494 568 41,000  Level FlightAware ADS-B
Sat 05:25:28 AM 30.1730 -91.9550 266° West 494 568 41,000  Level FlightAware ADS-B
Sat 05:26:04 AM 30.1680 -92.0360 266° West 494 568 41,000  Level FlightAware ADS-B
Sat 05:26:40 AM 30.1640 -92.1160 267° West 494 568 41,000  Level FlightAware ADS-B
Sat 05:27:16 AM 30.1590 -92.1970 266° West 494 568 41,000 -1,909 Level FlightAware ADS-B
Sat 05:27:46 AM 30.1530 -92.3640 268° West 489 563 38,900 -1,853 Descending FlightAware ADS-B
Sat 05:28:24 AM 30.1480 -92.4490 266° West 489 563 38,900  Level FlightAware ADS-B
Sat 05:29:00 AM 30.1430 -92.5290 266° West 489 563 38,900  Level FlightAware ADS-B
Sat 05:29:36 AM 30.1390 -92.6080 267° West 489 563 38,900  Level FlightAware ADS-B
Sat 05:30:15 AM 30.1330 -92.6950 265° West 489 563 38,900  Level FlightAware ADS-B
Sat 05:30:51 AM 30.1280 -92.7750 266° West 489 563 38,900  Level FlightAware ADS-B
Sat 05:31:27 AM 30.1240 -92.8550 267° West 489 563 38,900  Level FlightAware ADS-B
Sat 05:32:03 AM 30.1190 -92.9340 266° West 489 563 38,900  Level FlightAware ADS-B
Sat 05:32:39 AM 30.1140 -93.0140 266° West 489 563 38,900  Level FlightAware ADS-B
Sat 05:33:16 AM 30.1090 -93.0960 266° West 489 563 38,900  Level FlightAware ADS-B
Sat 05:34:04 AM 30.1030 -93.2030 266° West 489 563 38,900  Level FlightAware ADS-B
Sat 05:34:40 AM 30.0980 -93.2830 266° West 489 563 38,900  Level FlightAware ADS-B
Sat 05:35:16 AM 30.0930 -93.3620 266° West 489 563 38,900 -18,091 Level FlightAware ADS-B
Sat 05:35:46 AM 30.0750 -93.6310 266° West 445 512 19,000 -19,164 Descending FlightAware ADS-B
Sat 05:36:23 AM 30.0690 -93.7180 265° West 434 499 17,500 -2,435 Descending FlightAware ADS-B
Sat 05:36:55 AM 30.0640 -93.7930 266° West 425 489 16,200 -2,348 Descending FlightAware ADS-B
Sat 05:37:32 AM 30.0590 -93.8730 266° West 415 478 14,800 -1,063 Descending FlightAware ADS-B
Sat 05:38:14 AM 30.0530 -93.9510 265° West 415 478 14,800  Level FlightAware ADS-B
Sat 05:38:50 AM 30.0480 -94.0180 265° West 415 478 14,800 -3,171 Level FlightAware ADS-B
Sat 05:39:24 AM 30.0420 -94.1120 266° West 370 426 11,100 -3,083 Descending FlightAware ADS-B
Sat 05:40:02 AM 30.0380 -94.1760 266° West 370 426 11,100 -514 Level FlightAware ADS-B
Sat 05:40:34 AM 30.0340 -94.2340 265° West 313 360 10,500 -500 Descending FlightAware ADS-B
Sat 05:41:14 AM 30.0300 -94.2910 265° West 313 360 10,500 -429 Level FlightAware ADS-B
Sat 05:41:44 AM 30.0260 -94.3440 265° West 276 318 10,000 -696 Descending FlightAware ADS-B
Sat 05:42:23 AM 30.0220 -94.3990 265° West 275 316 9,700 -269 Descending FlightAware ADS-B
Sat 05:42:51 AM 30.0190 -94.4340 264° West 275 316 9,700  Level FlightAware ADS-B
Sat 05:43:15 AM 30.0170 -94.4630 265° West 275 316 9,700 -700 Level FlightAware ADS-B
Sat 05:43:51 AM 30.0120 -94.5300 265° West 267 307 9,000 -964 Descending FlightAware ADS-B
Sat 05:44:11 AM 30.0100 -94.5580 265° West 266 306 8,800 -558 Descending FlightAware ADS-B
Sat 05:44:34 AM 30.0080 -94.5920 266° West 265 305 8,600 -837 Descending FlightAware ADS-B
Sat 05:44:54 AM 30.0060 -94.6190 265° West 265 305 8,200 -1,077 Descending FlightAware ADS-B
Sat 05:45:13 AM 30.0040 -94.6470 265° West 267 307 7,900 -973 Descending FlightAware ADS-B
Sat 05:45:31 AM 30.0020 -94.6710 265° West 267 307 7,600 -973 Descending FlightAware ADS-B
Sat 05:45:50 AM 30.0000 -94.6980 265° West 266 306 7,300 -490 Descending FlightAware ADS-B
Sat 05:46:20 AM 29.9970 -94.7350 265° West 266 306 7,200 -1,000 Descending FlightAware ADS-B
Sat 05:46:38 AM 29.9950 -94.7670 266° West 266 306 6,500 -1,692 Descending FlightAware ADS-B
Sat 05:46:59 AM 29.9930 -94.7970 266° West 265 305 6,100 -1,091 Descending FlightAware ADS-B
Sat 05:47:22 AM 29.9900 -94.8290 264° West 265 305 5,700 -1,200 Descending FlightAware ADS-B
Sat 05:47:34 AM 29.9885 -94.8519 266° West 268 308 5,400 -1,143 Descending FlightAware ADS-B
Sat 05:48:04 AM 29.9852 -94.8947 265° West 266 306 4,900 -923 Descending FlightAware ADS-B
Sat 05:48:39 AM 29.9820 -94.9390 265° West 262 302 4,400 -894 Descending FlightAware ADS-B
Sat 05:48:51 AM 29.9803 -94.9592 264° West 258 297 4,200 -500 Descending FlightAware ADS-B
Sat 05:49:27 AM 29.9770 -95.0010 265° West 242 278 4,000 -293 Descending FlightAware ADS-B
Sat 05:49:32 AM 29.9772 -95.0129 271° West 239 275 4,000  Level FlightAware ADS-B
Sat 05:49:54 AM 29.9773 -95.0419 270° West 229 264 4,000  Level FlightAware ADS-B
Sat 05:50:15 AM 29.9774 -95.0610 270° West 211 243 4,000 -439 Level FlightAware ADS-B
Sat 05:50:35 AM 29.9775 -95.0875 270° West 207 238 3,700 -1,080 Descending FlightAware ADS-B
Sat 05:51:05 AM 29.9776 -95.1192 270° West 209 241 3,100 -1,200 Descending FlightAware ADS-B
Sat 05:51:20 AM 29.9775 -95.1354 270° West 201 231 2,800 -1,000 Descending FlightAware ADS-B
Sat 05:51:35 AM 29.9775 -95.1537 270° West 194 223 2,600 -1,059 Descending FlightAware ADS-B
Sat 05:51:54 AM 29.9776 -95.1723 270° West 189 217 2,200 -1,102 Descending FlightAware ADS-B
Sat 05:52:24 AM 29.9776 -95.2017 270° West 186 214 1,700 -831 Descending FlightAware ADS-B
Sat 05:52:59 AM 29.9780 -95.2310 271° West 171 197 1,300 -514 Descending FlightAware ADS-B
Sat 05:53:34 AM 29.9780 -95.2580 270° West 154 177 1,100 -537 Descending FlightAware ADS-B
Sat 05:54:06 AM 29.9780 -95.2820 270° West 150 173 700 -675 Descending FlightAware ADS-B
Sat 05:54:54 AM 29.9764 -95.3175 270° West 161 185 200 -625 Descending Houston Center

Login

Don't have an account? Register now (free) for customized features, flight alerts, and more!